sensor_id;sensor_type;location;lat;lon;timestamp;P1;durP1;ratioP1;P2;durP2;ratioP2
12886;SDS011;6511;49.746;6.094;2022-10-15T00:01:41;157.77;;;17.98;;
12886;SDS011;6511;49.746;6.094;2022-10-15T00:04:07;112.97;;;18.10;;
12886;SDS011;6511;49.746;6.094;2022-10-15T00:06:32;201.10;;;21.50;;
12886;SDS011;6511;49.746;6.094;2022-10-15T00:08:59;257.20;;;25.40;;
12886;SDS011;6511;49.746;6.094;2022-10-15T00:11:25;183.02;;;25.05;;
12886;SDS011;6511;49.746;6.094;2022-10-15T00:13:52;125.30;;;23.20;;
12886;SDS011;6511;49.746;6.094;2022-10-15T00:16:20;98.95;;;24.25;;
12886;SDS011;6511;49.746;6.094;2022-10-15T00:18:47;120.63;;;25.90;;
12886;SDS011;6511;49.746;6.094;2022-10-15T00:21:14;98.88;;;23.33;;
12886;SDS011;6511;49.746;6.094;2022-10-15T00:23:42;113.82;;;23.48;;
12886;SDS011;6511;49.746;6.094;2022-10-15T00:26:12;154.60;;;24.17;;
12886;SDS011;6511;49.746;6.094;2022-10-15T00:28:40;109.55;;;23.02;;
12886;SDS011;6511;49.746;6.094;2022-10-15T00:31:08;207.55;;;26.15;;
12886;SDS011;6511;49.746;6.094;2022-10-15T00:33:35;154.20;;;25.23;;
12886;SDS011;6511;49.746;6.094;2022-10-15T00:36:06;114.55;;;24.23;;
12886;SDS011;6511;49.746;6.094;2022-10-15T00:38:34;138.48;;;24.63;;
12886;SDS011;6511;49.746;6.094;2022-10-15T00:41:01;151.82;;;23.52;;
12886;SDS011;6511;49.746;6.094;2022-10-15T00:43:44;140.98;;;22.98;;
12886;SDS011;6511;49.746;6.094;2022-10-15T00:46:17;408.27;;;29.45;;
12886;SDS011;6511;49.746;6.094;2022-10-15T00:49:19;443.23;;;28.95;;
12886;SDS011;6511;49.746;6.094;2022-10-15T00:51:58;220.48;;;22.95;;
12886;SDS011;6511;49.746;6.094;2022-10-15T00:54:27;196.60;;;21.92;;
12886;SDS011;6511;49.746;6.094;2022-10-15T00:56:55;291.45;;;23.70;;
12886;SDS011;6511;49.746;6.094;2022-10-15T00:59:21;81.72;;;16.20;;
12886;SDS011;6511;49.746;6.094;2022-10-15T01:01:49;78.67;;;15.13;;
12886;SDS011;6511;49.746;6.094;2022-10-15T01:04:15;85.68;;;14.70;;
12886;SDS011;6511;49.746;6.094;2022-10-15T01:06:42;65.03;;;13.68;;
12886;SDS011;6511;49.746;6.094;2022-10-15T01:09:09;65.40;;;13.85;;
12886;SDS011;6511;49.746;6.094;2022-10-15T01:11:37;63.22;;;14.05;;
12886;SDS011;6511;49.746;6.094;2022-10-15T01:20:01;60.78;;;13.30;;
12886;SDS011;6511;49.746;6.094;2022-10-15T01:22:52;64.28;;;14.23;;
12886;SDS011;6511;49.746;6.094;2022-10-15T01:25:40;45.85;;;12.25;;
12886;SDS011;6511;49.746;6.094;2022-10-15T01:31:01;28.80;;;9.77;;
12886;SDS011;6511;49.746;6.094;2022-10-15T01:33:44;30.60;;;9.60;;
12886;SDS011;6511;49.746;6.094;2022-10-15T01:36:38;26.52;;;8.90;;
12886;SDS011;6511;49.746;6.094;2022-10-15T01:39:31;23.65;;;8.25;;
12886;SDS011;6511;49.746;6.094;2022-10-15T01:42:02;22.55;;;8.13;;
12886;SDS011;6511;49.746;6.094;2022-10-15T01:44:41;22.93;;;8.30;;
12886;SDS011;6511;49.746;6.094;2022-10-15T01:47:18;18.50;;;7.63;;
12886;SDS011;6511;49.746;6.094;2022-10-15T01:49:48;17.77;;;7.35;;
12886;SDS011;6511;49.746;6.094;2022-10-15T01:52:24;16.33;;;6.75;;
12886;SDS011;6511;49.746;6.094;2022-10-15T01:54:56;16.30;;;6.68;;
12886;SDS011;6511;49.746;6.094;2022-10-15T01:57:24;12.40;;;6.13;;
12886;SDS011;6511;49.746;6.094;2022-10-15T01:59:51;15.40;;;6.73;;
12886;SDS011;6511;49.746;6.094;2022-10-15T02:02:18;8.85;;;4.68;;
12886;SDS011;6511;49.746;6.094;2022-10-15T02:04:43;6.90;;;4.00;;
12886;SDS011;6511;49.746;6.094;2022-10-15T02:10:07;6.15;;;3.80;;
12886;SDS011;6511;49.746;6.094;2022-10-15T02:22:13;3.60;;;2.60;;
12886;SDS011;6511;49.746;6.094;2022-10-15T02:24:41;3.60;;;2.50;;
12886;SDS011;6511;49.746;6.094;2022-10-15T02:27:28;3.53;;;2.47;;
12886;SDS011;6511;49.746;6.094;2022-10-15T02:29:55;3.25;;;2.30;;
12886;SDS011;6511;49.746;6.094;2022-10-15T02:32:23;2.20;;;2.00;;
12886;SDS011;6511;49.746;6.094;2022-10-15T02:34:49;3.47;;;2.10;;
12886;SDS011;6511;49.746;6.094;2022-10-15T02:37:18;3.90;;;1.50;;
12886;SDS011;6511;49.746;6.094;2022-10-15T02:39:46;2.22;;;1.60;;
12886;SDS011;6511;49.746;6.094;2022-10-15T02:42:13;1.80;;;1.00;;
12886;SDS011;6511;49.746;6.094;2022-10-15T02:44:40;1.10;;;1.00;;
12886;SDS011;6511;49.746;6.094;2022-10-15T02:47:06;2.58;;;1.20;;
12886;SDS011;6511;49.746;6.094;2022-10-15T02:49:31;1.45;;;1.10;;
12886;SDS011;6511;49.746;6.094;2022-10-15T02:51:57;1.30;;;1.00;;
12886;SDS011;6511;49.746;6.094;2022-10-15T02:54:23;2.65;;;1.15;;
12886;SDS011;6511;49.746;6.094;2022-10-15T02:56:48;2.60;;;1.10;;
12886;SDS011;6511;49.746;6.094;2022-10-15T02:59:14;2.20;;;1.20;;
12886;SDS011;6511;49.746;6.094;2022-10-15T03:01:39;1.67;;;1.30;;
12886;SDS011;6511;49.746;6.094;2022-10-15T03:04:05;1.40;;;1.30;;
12886;SDS011;6511;49.746;6.094;2022-10-15T03:06:30;2.63;;;1.20;;
12886;SDS011;6511;49.746;6.094;2022-10-15T03:08:56;1.63;;;1.20;;
12886;SDS011;6511;49.746;6.094;2022-10-15T03:11:21;1.50;;;1.10;;
12886;SDS011;6511;49.746;6.094;2022-10-15T03:13:47;1.63;;;1.10;;
12886;SDS011;6511;49.746;6.094;2022-10-15T03:16:13;2.47;;;1.20;;
12886;SDS011;6511;49.746;6.094;2022-10-15T03:18:38;3.28;;;1.40;;
12886;SDS011;6511;49.746;6.094;2022-10-15T03:21:04;3.80;;;1.65;;
12886;SDS011;6511;49.746;6.094;2022-10-15T03:23:30;3.03;;;1.70;;
12886;SDS011;6511;49.746;6.094;2022-10-15T03:25:55;4.22;;;1.90;;
12886;SDS011;6511;49.746;6.094;2022-10-15T03:28:21;5.50;;;1.98;;
12886;SDS011;6511;49.746;6.094;2022-10-15T03:30:47;3.90;;;1.97;;
12886;SDS011;6511;49.746;6.094;2022-10-15T03:33:13;4.20;;;2.42;;
12886;SDS011;6511;49.746;6.094;2022-10-15T03:35:38;5.60;;;2.37;;
12886;SDS011;6511;49.746;6.094;2022-10-15T03:38:05;4.05;;;2.22;;
12886;SDS011;6511;49.746;6.094;2022-10-15T03:40:31;5.90;;;2.40;;
12886;SDS011;6511;49.746;6.094;2022-10-15T03:42:57;6.70;;;2.50;;
12886;SDS011;6511;49.746;6.094;2022-10-15T03:45:22;5.45;;;2.67;;
12886;SDS011;6511;49.746;6.094;2022-10-15T03:47:48;3.85;;;2.67;;
12886;SDS011;6511;49.746;6.094;2022-10-15T03:50:14;3.80;;;2.50;;
12886;SDS011;6511;49.746;6.094;2022-10-15T03:52:40;5.72;;;2.50;;
12886;SDS011;6511;49.746;6.094;2022-10-15T03:55:06;4.85;;;2.53;;
12886;SDS011;6511;49.746;6.094;2022-10-15T03:57:33;3.97;;;2.40;;
12886;SDS011;6511;49.746;6.094;2022-10-15T03:59:59;3.53;;;2.00;;
12886;SDS011;6511;49.746;6.094;2022-10-15T04:02:24;2.63;;;1.80;;
12886;SDS011;6511;49.746;6.094;2022-10-15T04:04:50;2.67;;;1.80;;
12886;SDS011;6511;49.746;6.094;2022-10-15T04:07:17;2.78;;;1.50;;
12886;SDS011;6511;49.746;6.094;2022-10-15T04:09:43;2.63;;;1.60;;
12886;SDS011;6511;49.746;6.094;2022-10-15T04:12:10;1.45;;;1.30;;
12886;SDS011;6511;49.746;6.094;2022-10-15T04:14:35;2.00;;;1.10;;
12886;SDS011;6511;49.746;6.094;2022-10-15T04:17:01;1.70;;;1.20;;
12886;SDS011;6511;49.746;6.094;2022-10-15T04:19:26;1.30;;;1.10;;
12886;SDS011;6511;49.746;6.094;2022-10-15T04:21:52;1.40;;;1.00;;
12886;SDS011;6511;49.746;6.094;2022-10-15T04:24:17;1.65;;;1.00;;
12886;SDS011;6511;49.746;6.094;2022-10-15T04:26:43;2.27;;;1.00;;
12886;SDS011;6511;49.746;6.094;2022-10-15T04:29:09;1.97;;;1.10;;
12886;SDS011;6511;49.746;6.094;2022-10-15T04:31:34;1.40;;;1.15;;
12886;SDS011;6511;49.746;6.094;2022-10-15T04:34:01;1.60;;;1.10;;
12886;SDS011;6511;49.746;6.094;2022-10-15T04:36:28;1.50;;;1.40;;
12886;SDS011;6511;49.746;6.094;2022-10-15T04:38:53;2.93;;;1.40;;
12886;SDS011;6511;49.746;6.094;2022-10-15T04:41:19;2.47;;;1.70;;
12886;SDS011;6511;49.746;6.094;2022-10-15T04:43:45;3.67;;;2.30;;
12886;SDS011;6511;49.746;6.094;2022-10-15T04:46:10;3.90;;;2.40;;
12886;SDS011;6511;49.746;6.094;2022-10-15T04:48:36;3.15;;;2.20;;
12886;SDS011;6511;49.746;6.094;2022-10-15T04:51:06;3.33;;;2.40;;
12886;SDS011;6511;49.746;6.094;2022-10-15T04:53:32;4.15;;;2.50;;
12886;SDS011;6511;49.746;6.094;2022-10-15T04:56:08;3.50;;;2.45;;
12886;SDS011;6511;49.746;6.094;2022-10-15T04:58:40;3.13;;;2.28;;
12886;SDS011;6511;49.746;6.094;2022-10-15T05:01:07;3.85;;;2.20;;
12886;SDS011;6511;49.746;6.094;2022-10-15T05:03:38;4.88;;;2.50;;
12886;SDS011;6511;49.746;6.094;2022-10-15T05:06:09;3.28;;;2.20;;
12886;SDS011;6511;49.746;6.094;2022-10-15T05:08:40;3.67;;;2.20;;
12886;SDS011;6511;49.746;6.094;2022-10-15T05:11:08;3.58;;;2.15;;
12886;SDS011;6511;49.746;6.094;2022-10-15T05:13:42;3.50;;;2.25;;
12886;SDS011;6511;49.746;6.094;2022-10-15T05:16:12;2.60;;;2.03;;
12886;SDS011;6511;49.746;6.094;2022-10-15T05:18:43;2.70;;;1.95;;
12886;SDS011;6511;49.746;6.094;2022-10-15T05:21:10;2.88;;;1.98;;
12886;SDS011;6511;49.746;6.094;2022-10-15T05:23:37;2.08;;;1.80;;
12886;SDS011;6511;49.746;6.094;2022-10-15T05:26:03;3.58;;;2.10;;
12886;SDS011;6511;49.746;6.094;2022-10-15T05:28:31;3.65;;;2.10;;
12886;SDS011;6511;49.746;6.094;2022-10-15T05:31:02;4.35;;;2.08;;
12886;SDS011;6511;49.746;6.094;2022-10-15T05:33:31;3.78;;;2.30;;
12886;SDS011;6511;49.746;6.094;2022-10-15T05:36:06;3.88;;;2.40;;
12886;SDS011;6511;49.746;6.094;2022-10-15T05:38:36;3.27;;;2.20;;
12886;SDS011;6511;49.746;6.094;2022-10-15T05:41:02;4.32;;;2.20;;
12886;SDS011;6511;49.746;6.094;2022-10-15T05:43:28;2.40;;;2.08;;
12886;SDS011;6511;49.746;6.094;2022-10-15T05:45:54;4.38;;;2.10;;
12886;SDS011;6511;49.746;6.094;2022-10-15T05:48:20;4.22;;;2.33;;
12886;SDS011;6511;49.746;6.094;2022-10-15T05:50:46;4.43;;;2.20;;
12886;SDS011;6511;49.746;6.094;2022-10-15T05:53:11;3.90;;;2.30;;
12886;SDS011;6511;49.746;6.094;2022-10-15T05:55:37;4.00;;;2.80;;
12886;SDS011;6511;49.746;6.094;2022-10-15T05:58:02;4.30;;;2.65;;
12886;SDS011;6511;49.746;6.094;2022-10-15T06:00:28;4.75;;;2.72;;
12886;SDS011;6511;49.746;6.094;2022-10-15T06:02:54;4.63;;;2.80;;
12886;SDS011;6511;49.746;6.094;2022-10-15T06:05:20;4.13;;;2.50;;
12886;SDS011;6511;49.746;6.094;2022-10-15T06:07:45;6.27;;;2.90;;
12886;SDS011;6511;49.746;6.094;2022-10-15T06:10:11;4.90;;;3.40;;
12886;SDS011;6511;49.746;6.094;2022-10-15T06:12:36;4.43;;;3.20;;
12886;SDS011;6511;49.746;6.094;2022-10-15T06:15:03;6.15;;;4.07;;
12886;SDS011;6511;49.746;6.094;2022-10-15T06:17:29;7.50;;;4.13;;
12886;SDS011;6511;49.746;6.094;2022-10-15T06:19:55;6.17;;;4.00;;
12886;SDS011;6511;49.746;6.094;2022-10-15T06:22:20;6.63;;;4.40;;
12886;SDS011;6511;49.746;6.094;2022-10-15T06:24:46;8.93;;;4.70;;
12886;SDS011;6511;49.746;6.094;2022-10-15T06:27:11;7.47;;;4.70;;
12886;SDS011;6511;49.746;6.094;2022-10-15T06:29:37;9.70;;;5.00;;
12886;SDS011;6511;49.746;6.094;2022-10-15T06:32:03;7.72;;;4.97;;
12886;SDS011;6511;49.746;6.094;2022-10-15T06:34:32;9.47;;;5.30;;
12886;SDS011;6511;49.746;6.094;2022-10-15T06:36:58;7.10;;;4.50;;
12886;SDS011;6511;49.746;6.094;2022-10-15T06:39:23;9.32;;;5.30;;
12886;SDS011;6511;49.746;6.094;2022-10-15T06:41:49;9.43;;;5.40;;
12886;SDS011;6511;49.746;6.094;2022-10-15T06:44:14;9.05;;;5.63;;
12886;SDS011;6511;49.746;6.094;2022-10-15T06:46:40;10.17;;;5.53;;
12886;SDS011;6511;49.746;6.094;2022-10-15T06:49:05;9.27;;;6.00;;
12886;SDS011;6511;49.746;6.094;2022-10-15T06:51:31;10.53;;;6.20;;
12886;SDS011;6511;49.746;6.094;2022-10-15T06:53:56;10.73;;;5.87;;
12886;SDS011;6511;49.746;6.094;2022-10-15T06:56:22;10.38;;;6.18;;
12886;SDS011;6511;49.746;6.094;2022-10-15T06:58:48;11.97;;;5.97;;
12886;SDS011;6511;49.746;6.094;2022-10-15T07:01:14;11.33;;;6.17;;
12886;SDS011;6511;49.746;6.094;2022-10-15T07:03:39;12.57;;;6.93;;
12886;SDS011;6511;49.746;6.094;2022-10-15T07:06:06;10.45;;;6.40;;
12886;SDS011;6511;49.746;6.094;2022-10-15T07:08:33;10.18;;;5.75;;
12886;SDS011;6511;49.746;6.094;2022-10-15T07:11:02;8.93;;;5.23;;
12886;SDS011;6511;49.746;6.094;2022-10-15T07:13:28;7.45;;;5.35;;
12886;SDS011;6511;49.746;6.094;2022-10-15T07:15:54;6.97;;;5.00;;
12886;SDS011;6511;49.746;6.094;2022-10-15T07:18:20;7.57;;;5.17;;
12886;SDS011;6511;49.746;6.094;2022-10-15T07:20:46;6.60;;;4.13;;
12886;SDS011;6511;49.746;6.094;2022-10-15T07:23:11;4.90;;;3.70;;
12886;SDS011;6511;49.746;6.094;2022-10-15T07:25:37;5.53;;;4.35;;
12886;SDS011;6511;49.746;6.094;2022-10-15T07:28:03;5.37;;;4.00;;
12886;SDS011;6511;49.746;6.094;2022-10-15T07:30:29;5.47;;;4.57;;
12886;SDS011;6511;49.746;6.094;2022-10-15T07:32:56;7.13;;;5.40;;
12886;SDS011;6511;49.746;6.094;2022-10-15T07:35:23;7.13;;;5.70;;
12886;SDS011;6511;49.746;6.094;2022-10-15T07:37:49;7.47;;;6.22;;
12886;SDS011;6511;49.746;6.094;2022-10-15T07:40:15;7.17;;;5.70;;
12886;SDS011;6511;49.746;6.094;2022-10-15T07:42:42;6.68;;;5.60;;
12886;SDS011;6511;49.746;6.094;2022-10-15T07:45:07;6.50;;;4.90;;
12886;SDS011;6511;49.746;6.094;2022-10-15T07:47:33;5.53;;;4.47;;
12886;SDS011;6511;49.746;6.094;2022-10-15T07:49:59;4.75;;;4.20;;
12886;SDS011;6511;49.746;6.094;2022-10-15T07:52:24;6.78;;;4.53;;
12886;SDS011;6511;49.746;6.094;2022-10-15T07:54:50;5.43;;;4.10;;
12886;SDS011;6511;49.746;6.094;2022-10-15T07:57:16;6.10;;;4.10;;
12886;SDS011;6511;49.746;6.094;2022-10-15T07:59:41;4.55;;;3.92;;
12886;SDS011;6511;49.746;6.094;2022-10-15T08:02:11;3.90;;;3.50;;
12886;SDS011;6511;49.746;6.094;2022-10-15T08:04:40;4.07;;;3.40;;
12886;SDS011;6511;49.746;6.094;2022-10-15T08:07:06;5.40;;;3.30;;
12886;SDS011;6511;49.746;6.094;2022-10-15T08:09:31;3.90;;;2.90;;
12886;SDS011;6511;49.746;6.094;2022-10-15T08:11:57;3.40;;;3.00;;
12886;SDS011;6511;49.746;6.094;2022-10-15T08:14:22;4.20;;;3.03;;
12886;SDS011;6511;49.746;6.094;2022-10-15T08:16:48;6.63;;;3.50;;
12886;SDS011;6511;49.746;6.094;2022-10-15T08:19:13;5.97;;;4.05;;
12886;SDS011;6511;49.746;6.094;2022-10-15T08:21:41;4.03;;;3.28;;
12886;SDS011;6511;49.746;6.094;2022-10-15T08:24:10;3.80;;;3.00;;
12886;SDS011;6511;49.746;6.094;2022-10-15T08:26:36;3.40;;;3.10;;
12886;SDS011;6511;49.746;6.094;2022-10-15T08:29:01;3.35;;;2.70;;
12886;SDS011;6511;49.746;6.094;2022-10-15T08:31:27;5.03;;;2.83;;
12886;SDS011;6511;49.746;6.094;2022-10-15T08:33:53;2.90;;;2.60;;
12886;SDS011;6511;49.746;6.094;2022-10-15T08:36:18;8.07;;;3.50;;
12886;SDS011;6511;49.746;6.094;2022-10-15T08:38:44;4.27;;;3.10;;
12886;SDS011;6511;49.746;6.094;2022-10-15T08:41:28;4.73;;;3.30;;
12886;SDS011;6511;49.746;6.094;2022-10-15T08:47:09;3.97;;;2.90;;
12886;SDS011;6511;49.746;6.094;2022-10-15T08:49:41;5.40;;;2.80;;
12886;SDS011;6511;49.746;6.094;2022-10-15T08:52:16;2.75;;;2.50;;
12886;SDS011;6511;49.746;6.094;2022-10-15T08:55:07;3.85;;;2.63;;
12886;SDS011;6511;49.746;6.094;2022-10-15T08:57:42;4.72;;;2.70;;
12886;SDS011;6511;49.746;6.094;2022-10-15T09:00:18;5.40;;;2.70;;
12886;SDS011;6511;49.746;6.094;2022-10-15T09:10:54;3.88;;;2.30;;
12886;SDS011;6511;49.746;6.094;2022-10-15T09:13:29;2.83;;;2.17;;
12886;SDS011;6511;49.746;6.094;2022-10-15T09:16:00;4.35;;;2.13;;
12886;SDS011;6511;49.746;6.094;2022-10-15T09:18:29;2.77;;;1.90;;
12886;SDS011;6511;49.746;6.094;2022-10-15T09:20:57;2.50;;;1.80;;
12886;SDS011;6511;49.746;6.094;2022-10-15T09:23:27;3.15;;;1.80;;
12886;SDS011;6511;49.746;6.094;2022-10-15T09:28:47;4.10;;;1.70;;
12886;SDS011;6511;49.746;6.094;2022-10-15T09:31:41;2.30;;;1.40;;
12886;SDS011;6511;49.746;6.094;2022-10-15T09:37:21;2.83;;;1.30;;
12886;SDS011;6511;49.746;6.094;2022-10-15T09:42:38;1.40;;;1.10;;
12886;SDS011;6511;49.746;6.094;2022-10-15T09:45:10;2.20;;;0.93;;
12886;SDS011;6511;49.746;6.094;2022-10-15T09:47:39;2.53;;;1.00;;
12886;SDS011;6511;49.746;6.094;2022-10-15T09:50:07;1.80;;;0.70;;
12886;SDS011;6511;49.746;6.094;2022-10-15T09:58:21;0.80;;;0.70;;
12886;SDS011;6511;49.746;6.094;2022-10-15T10:00:51;1.70;;;0.70;;
12886;SDS011;6511;49.746;6.094;2022-10-15T10:03:20;2.00;;;0.85;;
12886;SDS011;6511;49.746;6.094;2022-10-15T10:05:47;1.75;;;0.80;;
12886;SDS011;6511;49.746;6.094;2022-10-15T10:08:23;1.77;;;0.90;;
12886;SDS011;6511;49.746;6.094;2022-10-15T10:10:54;2.10;;;0.75;;
12886;SDS011;6511;49.746;6.094;2022-10-15T10:13:26;2.38;;;0.90;;
12886;SDS011;6511;49.746;6.094;2022-10-15T10:16:08;1.40;;;0.70;;
12886;SDS011;6511;49.746;6.094;2022-10-15T10:18:35;1.42;;;0.70;;
12886;SDS011;6511;49.746;6.094;2022-10-15T10:21:27;0.77;;;0.77;;
12886;SDS011;6511;49.746;6.094;2022-10-15T10:23:54;2.03;;;0.93;;
12886;SDS011;6511;49.746;6.094;2022-10-15T10:26:21;2.08;;;1.00;;
12886;SDS011;6511;49.746;6.094;2022-10-15T10:28:51;1.38;;;1.00;;
12886;SDS011;6511;49.746;6.094;2022-10-15T10:31:26;2.37;;;1.10;;
12886;SDS011;6511;49.746;6.094;2022-10-15T10:33:54;1.55;;;0.98;;
12886;SDS011;6511;49.746;6.094;2022-10-15T10:36:24;4.17;;;1.10;;
12886;SDS011;6511;49.746;6.094;2022-10-15T10:41:50;2.63;;;0.90;;
12886;SDS011;6511;49.746;6.094;2022-10-15T10:44:31;1.20;;;1.00;;
12886;SDS011;6511;49.746;6.094;2022-10-15T10:47:01;0.80;;;0.80;;
12886;SDS011;6511;49.746;6.094;2022-10-15T10:49:33;0.90;;;0.80;;
12886;SDS011;6511;49.746;6.094;2022-10-15T10:52:00;1.90;;;0.88;;
12886;SDS011;6511;49.746;6.094;2022-10-15T10:54:25;2.83;;;0.80;;
12886;SDS011;6511;49.746;6.094;2022-10-15T10:56:53;1.53;;;0.77;;
12886;SDS011;6511;49.746;6.094;2022-10-15T10:59:37;0.90;;;0.60;;
12886;SDS011;6511;49.746;6.094;2022-10-15T11:02:09;0.85;;;0.60;;
12886;SDS011;6511;49.746;6.094;2022-10-15T11:04:36;0.73;;;0.70;;
12886;SDS011;6511;49.746;6.094;2022-10-15T11:20:21;0.50;;;0.50;;
12886;SDS011;6511;49.746;6.094;2022-10-15T11:23:05;1.52;;;0.60;;
12886;SDS011;6511;49.746;6.094;2022-10-15T11:25:55;2.00;;;0.60;;
12886;SDS011;6511;49.746;6.094;2022-10-15T11:28:50;0.80;;;0.50;;
12886;SDS011;6511;49.746;6.094;2022-10-15T11:37:03;1.20;;;0.50;;
12886;SDS011;6511;49.746;6.094;2022-10-15T11:53:08;0.73;;;0.50;;
12886;SDS011;6511;49.746;6.094;2022-10-15T11:56:12;0.80;;;0.80;;
12886;SDS011;6511;49.746;6.094;2022-10-15T12:01:11;0.70;;;0.50;;
12886;SDS011;6511;49.746;6.094;2022-10-15T12:03:51;0.50;;;0.50;;
12886;SDS011;6511;49.746;6.094;2022-10-15T12:06:21;0.83;;;0.70;;
12886;SDS011;6511;49.746;6.094;2022-10-15T12:08:51;0.90;;;0.60;;
12886;SDS011;6511;49.746;6.094;2022-10-15T12:19:25;2.00;;;0.50;;
12886;SDS011;6511;49.746;6.094;2022-10-15T12:30:10;1.35;;;0.70;;
12886;SDS011;6511;49.746;6.094;2022-10-15T12:32:50;0.80;;;0.80;;
12886;SDS011;6511;49.746;6.094;2022-10-15T12:37:45;1.42;;;0.70;;
12886;SDS011;6511;49.746;6.094;2022-10-15T12:42:45;0.63;;;0.60;;
12886;SDS011;6511;49.746;6.094;2022-10-15T12:45:35;2.45;;;0.63;;
12886;SDS011;6511;49.746;6.094;2022-10-15T12:50:29;1.10;;;0.60;;
12886;SDS011;6511;49.746;6.094;2022-10-15T12:53:03;0.70;;;0.60;;
12886;SDS011;6511;49.746;6.094;2022-10-15T13:01:02;1.00;;;0.90;;
12886;SDS011;6511;49.746;6.094;2022-10-15T13:08:59;0.90;;;0.70;;
12886;SDS011;6511;49.746;6.094;2022-10-15T13:11:30;2.63;;;0.70;;
12886;SDS011;6511;49.746;6.094;2022-10-15T13:14:00;0.70;;;0.70;;
12886;SDS011;6511;49.746;6.094;2022-10-15T13:16:35;1.45;;;0.75;;
12886;SDS011;6511;49.746;6.094;2022-10-15T13:19:00;1.50;;;0.77;;
12886;SDS011;6511;49.746;6.094;2022-10-15T13:24:15;0.85;;;0.80;;
12886;SDS011;6511;49.746;6.094;2022-10-15T13:26:43;1.58;;;0.80;;
12886;SDS011;6511;49.746;6.094;2022-10-15T13:29:14;0.60;;;0.60;;
12886;SDS011;6511;49.746;6.094;2022-10-15T13:31:47;1.00;;;0.80;;
12886;SDS011;6511;49.746;6.094;2022-10-15T13:36:44;0.88;;;0.70;;
12886;SDS011;6511;49.746;6.094;2022-10-15T13:39:27;1.50;;;0.90;;
12886;SDS011;6511;49.746;6.094;2022-10-15T13:47:32;3.75;;;2.40;;
12886;SDS011;6511;49.746;6.094;2022-10-15T13:50:20;2.47;;;1.70;;
12886;SDS011;6511;49.746;6.094;2022-10-15T13:52:58;2.72;;;1.42;;
12886;SDS011;6511;49.746;6.094;2022-10-15T13:55:37;1.50;;;1.40;;
12886;SDS011;6511;49.746;6.094;2022-10-15T13:58:18;2.10;;;1.02;;
12886;SDS011;6511;49.746;6.094;2022-10-15T14:03:50;2.42;;;1.80;;
12886;SDS011;6511;49.746;6.094;2022-10-15T14:06:31;2.20;;;1.40;;
12886;SDS011;6511;49.746;6.094;2022-10-15T14:08:59;1.55;;;1.45;;
12886;SDS011;6511;49.746;6.094;2022-10-15T14:11:35;2.17;;;1.02;;
12886;SDS011;6511;49.746;6.094;2022-10-15T14:14:03;1.60;;;1.50;;
12886;SDS011;6511;49.746;6.094;2022-10-15T14:16:48;1.98;;;1.08;;
12886;SDS011;6511;49.746;6.094;2022-10-15T14:19:16;2.33;;;0.80;;
12886;SDS011;6511;49.746;6.094;2022-10-15T14:21:44;3.15;;;1.33;;
12886;SDS011;6511;49.746;6.094;2022-10-15T14:24:19;2.85;;;1.40;;
12886;SDS011;6511;49.746;6.094;2022-10-15T14:26:47;3.03;;;1.30;;
12886;SDS011;6511;49.746;6.094;2022-10-15T14:29:26;2.10;;;1.40;;
12886;SDS011;6511;49.746;6.094;2022-10-15T14:31:57;3.50;;;1.77;;
12886;SDS011;6511;49.746;6.094;2022-10-15T14:36:54;5.27;;;3.57;;
12886;SDS011;6511;49.746;6.094;2022-10-15T14:39:30;4.20;;;2.23;;
12886;SDS011;6511;49.746;6.094;2022-10-15T14:41:58;1.90;;;1.30;;
12886;SDS011;6511;49.746;6.094;2022-10-15T14:44:38;2.15;;;1.52;;
12886;SDS011;6511;49.746;6.094;2022-10-15T14:47:05;2.58;;;1.33;;
12886;SDS011;6511;49.746;6.094;2022-10-15T14:49:42;1.60;;;1.20;;
12886;SDS011;6511;49.746;6.094;2022-10-15T14:52:10;2.83;;;1.35;;
12886;SDS011;6511;49.746;6.094;2022-10-15T14:54:40;1.67;;;1.10;;
12886;SDS011;6511;49.746;6.094;2022-10-15T14:57:15;1.23;;;0.93;;
12886;SDS011;6511;49.746;6.094;2022-10-15T14:59:50;2.30;;;0.73;;
12886;SDS011;6511;49.746;6.094;2022-10-15T15:02:19;1.33;;;0.90;;
12886;SDS011;6511;49.746;6.094;2022-10-15T15:04:51;1.60;;;0.80;;
12886;SDS011;6511;49.746;6.094;2022-10-15T15:07:30;2.50;;;1.20;;
12886;SDS011;6511;49.746;6.094;2022-10-15T15:09:56;4.78;;;2.88;;
12886;SDS011;6511;49.746;6.094;2022-10-15T15:12:24;5.03;;;3.17;;
12886;SDS011;6511;49.746;6.094;2022-10-15T15:14:50;3.08;;;2.47;;
12886;SDS011;6511;49.746;6.094;2022-10-15T15:17:18;2.00;;;1.73;;
12886;SDS011;6511;49.746;6.094;2022-10-15T15:19:49;3.67;;;1.90;;
12886;SDS011;6511;49.746;6.094;2022-10-15T15:22:22;3.28;;;2.30;;
12886;SDS011;6511;49.746;6.094;2022-10-15T15:25:00;3.30;;;2.50;;
12886;SDS011;6511;49.746;6.094;2022-10-15T15:27:29;2.30;;;1.70;;
12886;SDS011;6511;49.746;6.094;2022-10-15T15:30:02;2.53;;;1.30;;
12886;SDS011;6511;49.746;6.094;2022-10-15T15:32:28;1.45;;;1.35;;
12886;SDS011;6511;49.746;6.094;2022-10-15T15:34:54;2.43;;;1.00;;
12886;SDS011;6511;49.746;6.094;2022-10-15T15:37:22;2.63;;;0.90;;
12886;SDS011;6511;49.746;6.094;2022-10-15T15:39:49;2.55;;;1.00;;
12886;SDS011;6511;49.746;6.094;2022-10-15T15:42:15;1.70;;;1.20;;
12886;SDS011;6511;49.746;6.094;2022-10-15T15:44:44;2.13;;;0.90;;
12886;SDS011;6511;49.746;6.094;2022-10-15T15:47:09;1.40;;;0.90;;
12886;SDS011;6511;49.746;6.094;2022-10-15T15:49:36;1.90;;;0.90;;
12886;SDS011;6511;49.746;6.094;2022-10-15T15:52:02;3.22;;;1.25;;
12886;SDS011;6511;49.746;6.094;2022-10-15T15:54:41;3.05;;;1.17;;
12886;SDS011;6511;49.746;6.094;2022-10-15T15:57:07;2.08;;;1.90;;
12886;SDS011;6511;49.746;6.094;2022-10-15T15:59:32;3.97;;;3.60;;
12886;SDS011;6511;49.746;6.094;2022-10-15T16:01:58;4.10;;;2.70;;
12886;SDS011;6511;49.746;6.094;2022-10-15T16:04:23;3.60;;;1.80;;
12886;SDS011;6511;49.746;6.094;2022-10-15T16:06:49;8.23;;;2.33;;
12886;SDS011;6511;49.746;6.094;2022-10-15T16:09:18;3.73;;;2.70;;
12886;SDS011;6511;49.746;6.094;2022-10-15T16:11:46;2.60;;;2.10;;
12886;SDS011;6511;49.746;6.094;2022-10-15T16:14:12;5.00;;;3.75;;
12886;SDS011;6511;49.746;6.094;2022-10-15T16:16:37;3.93;;;3.30;;
12886;SDS011;6511;49.746;6.094;2022-10-15T16:19:03;5.87;;;4.37;;
12886;SDS011;6511;49.746;6.094;2022-10-15T16:21:30;3.92;;;3.10;;
12886;SDS011;6511;49.746;6.094;2022-10-15T16:23:56;3.28;;;2.53;;
12886;SDS011;6511;49.746;6.094;2022-10-15T16:26:22;4.00;;;2.40;;
12886;SDS011;6511;49.746;6.094;2022-10-15T16:28:48;2.40;;;1.60;;
12886;SDS011;6511;49.746;6.094;2022-10-15T16:31:21;4.10;;;2.20;;
12886;SDS011;6511;49.746;6.094;2022-10-15T16:33:48;2.10;;;1.90;;
12886;SDS011;6511;49.746;6.094;2022-10-15T16:36:14;2.13;;;1.50;;
12886;SDS011;6511;49.746;6.094;2022-10-15T16:38:41;2.75;;;1.25;;
12886;SDS011;6511;49.746;6.094;2022-10-15T16:41:08;3.90;;;1.50;;
12886;SDS011;6511;49.746;6.094;2022-10-15T16:43:35;2.28;;;1.58;;
12886;SDS011;6511;49.746;6.094;2022-10-15T16:46:00;3.85;;;1.50;;
12886;SDS011;6511;49.746;6.094;2022-10-15T16:48:27;1.80;;;1.50;;
12886;SDS011;6511;49.746;6.094;2022-10-15T16:51:07;2.22;;;1.40;;
12886;SDS011;6511;49.746;6.094;2022-10-15T16:53:35;2.70;;;1.90;;
12886;SDS011;6511;49.746;6.094;2022-10-15T16:56:03;3.55;;;2.00;;
12886;SDS011;6511;49.746;6.094;2022-10-15T16:58:33;2.77;;;1.87;;
12886;SDS011;6511;49.746;6.094;2022-10-15T17:01:00;2.88;;;1.90;;
12886;SDS011;6511;49.746;6.094;2022-10-15T17:03:27;3.45;;;1.70;;
12886;SDS011;6511;49.746;6.094;2022-10-15T17:05:57;3.03;;;1.80;;
12886;SDS011;6511;49.746;6.094;2022-10-15T17:08:24;4.70;;;2.00;;
12886;SDS011;6511;49.746;6.094;2022-10-15T17:10:52;2.63;;;1.70;;
12886;SDS011;6511;49.746;6.094;2022-10-15T17:13:18;4.40;;;1.90;;
12886;SDS011;6511;49.746;6.094;2022-10-15T17:15:44;2.60;;;2.40;;
12886;SDS011;6511;49.746;6.094;2022-10-15T17:18:10;4.50;;;2.17;;
12886;SDS011;6511;49.746;6.094;2022-10-15T17:20:45;3.47;;;1.90;;
12886;SDS011;6511;49.746;6.094;2022-10-15T17:23:13;4.72;;;1.80;;
12886;SDS011;6511;49.746;6.094;2022-10-15T17:25:40;2.35;;;1.88;;
12886;SDS011;6511;49.746;6.094;2022-10-15T17:28:06;2.40;;;1.98;;